createdAt,value
2022-10-10T00:01:32.478Z,77.77
2022-10-10T00:04:01.439Z,77.81
2022-10-10T00:06:33.051Z,77.54
2022-10-10T00:09:02.210Z,77.62
2022-10-10T00:11:30.607Z,77.40
2022-10-10T00:14:00.725Z,77.08
2022-10-10T00:16:29.115Z,77.32
2022-10-10T00:18:57.423Z,77.37
2022-10-10T00:21:25.682Z,77.46
2022-10-10T00:23:53.999Z,77.68
2022-10-10T00:26:22.695Z,77.81
2022-10-10T00:28:50.937Z,78.03
2022-10-10T00:31:20.688Z,77.95
2022-10-10T00:33:49.345Z,77.71
2022-10-10T00:36:20.566Z,77.93
2022-10-10T00:38:49.426Z,77.93
2022-10-10T00:41:17.694Z,77.86
2022-10-10T00:44:05.133Z,77.39
2022-10-10T00:46:34.913Z,77.74
2022-10-10T00:49:05.233Z,77.70
2022-10-10T00:51:33.846Z,77.69
2022-10-10T00:54:07.104Z,77.43
2022-10-10T00:56:41.223Z,77.29
2022-10-10T00:59:12.661Z,77.30
2022-10-10T01:01:43.943Z,77.08
2022-10-10T01:04:34.338Z,76.93
2022-10-10T01:07:04.220Z,77.39
2022-10-10T01:09:33.629Z,77.25
2022-10-10T01:12:14.692Z,77.28
2022-10-10T01:14:51.078Z,77.33
2022-10-10T01:17:30.236Z,77.29
2022-10-10T01:20:22.701Z,77.35
2022-10-10T01:23:09.139Z,77.62
2022-10-10T01:25:48.158Z,77.86
2022-10-10T01:28:35.256Z,77.71
2022-10-10T01:31:07.443Z,78.17
2022-10-10T01:33:43.420Z,77.80
2022-10-10T01:36:20.504Z,77.73
2022-10-10T01:38:57.506Z,77.87
2022-10-10T01:41:32.684Z,77.72
2022-10-10T01:44:02.442Z,77.85
2022-10-10T01:46:30.639Z,78.03
2022-10-10T01:49:00.127Z,78.00
2022-10-10T01:51:46.884Z,77.57
2022-10-10T01:54:29.580Z,77.80
2022-10-10T01:57:05.908Z,78.02
2022-10-10T01:59:47.839Z,77.95
2022-10-10T02:02:24.741Z,78.23
2022-10-10T02:05:01.937Z,78.44
2022-10-10T02:07:34.547Z,78.02
2022-10-10T02:10:06.208Z,78.05
2022-10-10T02:12:36.998Z,78.21
2022-10-10T02:15:11.890Z,78.05
2022-10-10T02:17:42.202Z,77.97
2022-10-10T02:20:13.044Z,78.12
2022-10-10T02:22:44.353Z,78.11
2022-10-10T02:25:14.675Z,78.24
2022-10-10T02:27:48.059Z,78.04
2022-10-10T02:30:19.787Z,77.79
2022-10-10T02:32:50.633Z,77.73
2022-10-10T02:35:32.041Z,77.81
2022-10-10T02:38:03.067Z,77.75
2022-10-10T02:40:35.662Z,77.56
2022-10-10T02:43:07.362Z,77.77
2022-10-10T02:45:37.221Z,77.86
2022-10-10T02:48:06.579Z,77.94
2022-10-10T02:50:35.613Z,77.69
2022-10-10T02:53:03.938Z,77.90
2022-10-10T02:55:32.227Z,77.97
2022-10-10T02:58:00.558Z,78.08
2022-10-10T03:00:28.800Z,77.98
2022-10-10T03:02:58.446Z,77.78
2022-10-10T03:05:26.816Z,77.75
2022-10-10T03:07:55.140Z,78.01
2022-10-10T03:10:23.467Z,78.15
2022-10-10T03:12:52.001Z,78.10
2022-10-10T03:15:20.575Z,78.20
2022-10-10T03:17:48.842Z,78.54
2022-10-10T03:20:18.688Z,78.52
2022-10-10T03:22:46.936Z,78.35
2022-10-10T03:25:15.244Z,78.45
2022-10-10T03:27:43.557Z,78.26
2022-10-10T03:30:13.087Z,77.98
2022-10-10T03:32:41.627Z,77.94
2022-10-10T03:35:10.941Z,78.12
2022-10-10T03:37:40.704Z,77.99
2022-10-10T03:40:10.610Z,78.05
2022-10-10T03:42:38.904Z,77.97
2022-10-10T03:45:07.845Z,77.90
2022-10-10T03:47:36.200Z,77.96
2022-10-10T03:50:04.980Z,78.16
2022-10-10T03:52:33.260Z,78.10
2022-10-10T03:55:02.987Z,78.02
2022-10-10T03:57:31.235Z,78.04
2022-10-10T03:59:59.513Z,77.97
2022-10-10T04:02:27.723Z,77.67
2022-10-10T04:04:55.993Z,77.82
2022-10-10T04:07:24.261Z,77.96
2022-10-10T04:09:53.883Z,78.05
2022-10-10T04:12:23.582Z,78.38
2022-10-10T04:14:51.896Z,78.40
2022-10-10T04:17:20.170Z,78.50
2022-10-10T04:19:48.525Z,78.38
2022-10-10T04:22:17.642Z,78.25
2022-10-10T04:24:45.905Z,78.15
2022-10-10T04:27:14.175Z,78.15
2022-10-10T04:29:43.822Z,78.21
2022-10-10T04:32:12.071Z,78.11
2022-10-10T04:34:40.336Z,78.08
2022-10-10T04:37:08.517Z,77.92
2022-10-10T04:39:36.776Z,77.98
2022-10-10T04:42:05.285Z,78.08
2022-10-10T04:44:33.582Z,77.94
2022-10-10T04:47:03.249Z,78.01
2022-10-10T04:49:31.566Z,77.83
2022-10-10T04:52:00.181Z,77.91
2022-10-10T04:54:28.661Z,78.20
2022-10-10T04:56:56.944Z,78.35
2022-10-10T04:59:25.323Z,78.48
2022-10-10T05:01:57.062Z,78.23
2022-10-10T05:04:29.062Z,77.94
2022-10-10T05:06:57.331Z,77.90
2022-10-10T05:09:25.740Z,77.96
2022-10-10T05:11:54.133Z,78.25
2022-10-10T05:14:22.362Z,78.03
2022-10-10T05:16:50.995Z,78.00
2022-10-10T05:19:19.289Z,77.99
2022-10-10T05:21:49.044Z,77.79
2022-10-10T05:24:17.311Z,77.56
2022-10-10T05:26:45.811Z,77.26
2022-10-10T05:29:14.167Z,77.10
2022-10-10T05:31:42.448Z,76.97
2022-10-10T05:34:13.878Z,76.98
2022-10-10T05:36:42.414Z,77.02
2022-10-10T05:39:12.273Z,77.01
2022-10-10T05:41:40.516Z,76.84
2022-10-10T05:44:09.377Z,76.55
2022-10-10T05:46:37.567Z,76.16
2022-10-10T05:49:05.893Z,75.91
2022-10-10T05:51:34.259Z,75.82
2022-10-10T05:54:02.598Z,75.67
2022-10-10T05:56:32.211Z,75.57
2022-10-10T05:59:00.580Z,75.67
2022-10-10T06:01:28.960Z,75.70
2022-10-10T06:03:57.199Z,75.72
2022-10-10T06:06:26.760Z,75.86
2022-10-10T06:08:55.933Z,75.28
2022-10-10T06:11:26.023Z,75.56
2022-10-10T06:13:55.830Z,75.73
2022-10-10T06:16:24.782Z,75.57
2022-10-10T06:18:53.140Z,75.80
2022-10-10T06:21:21.583Z,75.97
2022-10-10T06:23:50.243Z,75.71
2022-10-10T06:26:19.346Z,75.61
2022-10-10T06:28:47.801Z,75.73
2022-10-10T06:31:18.012Z,75.98
2022-10-10T06:33:48.183Z,75.80
2022-10-10T06:36:17.708Z,76.06
2022-10-10T06:38:47.180Z,76.40
2022-10-10T06:41:15.418Z,76.63
2022-10-10T06:43:43.630Z,76.85
2022-10-10T06:46:11.952Z,76.95
2022-10-10T06:48:42.161Z,77.42
2022-10-10T06:51:14.840Z,77.82
2022-10-10T06:53:43.596Z,77.95
2022-10-10T06:56:17.506Z,78.14
2022-10-10T06:58:46.242Z,78.17
2022-10-10T07:01:14.688Z,78.16
2022-10-10T07:03:44.487Z,78.28
2022-10-10T07:06:13.688Z,78.49
2022-10-10T07:08:42.152Z,78.68
2022-10-10T07:11:10.622Z,78.77
2022-10-10T07:13:39.302Z,78.99
2022-10-10T07:16:08.230Z,79.08
2022-10-10T07:18:37.810Z,79.19
2022-10-10T07:21:07.943Z,79.38
2022-10-10T07:23:37.058Z,79.57
2022-10-10T07:26:08.141Z,79.67
2022-10-10T07:28:36.481Z,79.50
2022-10-10T07:31:06.655Z,79.74
2022-10-10T07:33:36.967Z,79.55
2022-10-10T07:36:08.147Z,79.78
2022-10-10T07:38:37.067Z,79.83
2022-10-10T07:41:14.976Z,78.49
2022-10-10T07:43:43.310Z,77.00
2022-10-10T07:46:17.020Z,75.76
2022-10-10T07:48:45.421Z,74.91
2022-10-10T07:51:15.651Z,73.90
2022-10-10T07:53:44.399Z,73.46
2022-10-10T07:56:12.926Z,73.53
2022-10-10T07:58:41.297Z,73.26
2022-10-10T08:01:12.013Z,73.10
2022-10-10T08:03:41.191Z,72.81
2022-10-10T08:06:11.434Z,72.65
2022-10-10T08:08:50.508Z,72.48
2022-10-10T08:11:21.579Z,72.69
2022-10-10T08:13:50.494Z,72.73
2022-10-10T08:16:19.158Z,72.67
2022-10-10T08:18:47.411Z,72.62
2022-10-10T08:21:16.960Z,73.26
2022-10-10T08:23:46.871Z,73.08
2022-10-10T08:26:17.870Z,73.27
2022-10-10T08:28:48.640Z,73.00
2022-10-10T08:31:20.227Z,72.83
2022-10-10T08:33:50.750Z,72.37
2022-10-10T08:36:21.403Z,72.02
2022-10-10T08:38:52.775Z,71.73
2022-10-10T08:41:35.919Z,71.74
2022-10-10T08:44:12.910Z,71.05
2022-10-10T08:46:46.000Z,70.99
2022-10-10T08:49:21.210Z,70.13
2022-10-10T08:51:59.886Z,69.81
2022-10-10T08:54:31.058Z,69.62
2022-10-10T08:57:02.300Z,69.04
2022-10-10T08:59:34.694Z,69.27
2022-10-10T09:02:38.289Z,69.14
2022-10-10T09:05:21.774Z,68.20
2022-10-10T09:08:26.334Z,67.42
2022-10-10T09:11:01.057Z,67.13
2022-10-10T09:13:35.135Z,67.45
2022-10-10T09:16:07.370Z,67.25
2022-10-10T09:18:53.392Z,66.42
2022-10-10T09:21:25.558Z,66.12
2022-10-10T09:24:01.526Z,65.70
2022-10-10T09:26:36.999Z,65.75
2022-10-10T09:29:16.374Z,66.00
2022-10-10T09:31:49.586Z,65.71
2022-10-10T09:34:24.203Z,64.24
2022-10-10T09:36:57.225Z,63.21
2022-10-10T09:39:38.821Z,63.16
2022-10-10T09:42:13.138Z,62.85
2022-10-10T09:44:43.007Z,62.92
2022-10-10T09:47:14.050Z,63.71
2022-10-10T09:49:42.877Z,63.57
2022-10-10T09:52:27.345Z,63.73
2022-10-10T09:55:00.978Z,63.66
2022-10-10T09:57:36.788Z,62.83
2022-10-10T10:00:33.756Z,62.71
2022-10-10T10:03:13.862Z,62.74
2022-10-10T10:05:44.980Z,62.10
2022-10-10T10:08:27.433Z,61.68
2022-10-10T10:10:58.741Z,61.40
2022-10-10T10:13:31.722Z,61.55
2022-10-10T10:16:06.507Z,61.80
2022-10-10T10:18:41.592Z,62.50
2022-10-10T10:21:19.383Z,63.10
2022-10-10T10:23:56.731Z,62.90
2022-10-10T10:26:28.694Z,63.12
2022-10-10T10:28:59.495Z,62.67
2022-10-10T10:31:54.911Z,61.50
2022-10-10T10:34:38.536Z,61.03
2022-10-10T10:37:17.877Z,60.67
2022-10-10T10:40:09.307Z,60.08
2022-10-10T10:42:51.033Z,60.32
2022-10-10T10:45:26.962Z,60.40
2022-10-10T10:48:02.080Z,60.35
2022-10-10T10:50:44.308Z,59.32
2022-10-10T10:53:23.434Z,59.26
2022-10-10T10:56:01.537Z,59.74
2022-10-10T10:59:10.719Z,57.57
2022-10-10T11:01:56.065Z,57.41
2022-10-10T11:05:23.001Z,58.90
2022-10-10T11:07:49.574Z,58.63
2022-10-10T11:10:29.726Z,58.45
2022-10-10T11:13:04.717Z,56.35
2022-10-10T11:16:04.874Z,57.06
2022-10-10T11:18:34.004Z,59.05
2022-10-10T11:21:08.265Z,59.04
2022-10-10T11:23:42.756Z,59.05
2022-10-10T11:26:19.395Z,59.31
2022-10-10T11:28:52.953Z,59.26
2022-10-10T11:31:26.855Z,59.10
2022-10-10T11:34:02.392Z,58.99
2022-10-10T11:36:33.294Z,59.12
2022-10-10T11:39:05.728Z,59.13
2022-10-10T11:41:37.613Z,59.80
2022-10-10T11:44:11.615Z,58.79
2022-10-10T11:46:44.692Z,58.18
2022-10-10T11:49:22.585Z,58.57
2022-10-10T11:52:32.999Z,57.76
2022-10-10T11:55:07.587Z,58.27
2022-10-10T11:57:41.687Z,57.78
2022-10-10T12:00:14.850Z,57.10
2022-10-10T12:02:44.934Z,57.41
2022-10-10T12:05:24.007Z,57.79
2022-10-10T12:08:05.743Z,58.67
2022-10-10T12:10:38.918Z,58.94
2022-10-10T12:13:29.431Z,58.00
2022-10-10T12:16:02.987Z,57.17
2022-10-10T12:18:39.671Z,57.57
2022-10-10T12:21:11.582Z,57.33
2022-10-10T12:23:43.041Z,57.71
2022-10-10T12:26:18.653Z,57.82
2022-10-10T12:29:03.253Z,58.27
2022-10-10T12:31:38.587Z,58.69
2022-10-10T12:34:17.939Z,58.81
2022-10-10T12:37:22.265Z,58.85
2022-10-10T12:40:23.435Z,57.92
2022-10-10T12:43:16.998Z,58.44
2022-10-10T12:46:08.182Z,57.99
2022-10-10T12:48:37.355Z,56.58
2022-10-10T12:51:06.151Z,56.87
2022-10-10T12:53:35.718Z,55.93
2022-10-10T12:56:05.672Z,55.80
2022-10-10T12:58:38.724Z,56.07
2022-10-10T13:01:10.966Z,54.92
2022-10-10T13:03:43.895Z,53.97
2022-10-10T13:06:35.520Z,54.79
2022-10-10T13:09:09.192Z,56.19
2022-10-10T13:11:57.512Z,55.68
2022-10-10T13:14:27.699Z,55.21
2022-10-10T13:16:56.106Z,55.25
2022-10-10T13:19:25.802Z,54.80
2022-10-10T13:21:56.178Z,53.99
2022-10-10T13:24:30.037Z,53.86
2022-10-10T13:27:00.080Z,54.20
2022-10-10T13:29:32.571Z,54.93
2022-10-10T13:32:03.466Z,54.86
2022-10-10T13:34:35.448Z,54.70
2022-10-10T13:37:06.439Z,54.20
2022-10-10T13:39:38.411Z,54.63
2022-10-10T13:42:12.656Z,54.77
2022-10-10T13:44:52.960Z,56.08
2022-10-10T13:47:54.410Z,55.48
2022-10-10T13:50:26.875Z,54.91
2022-10-10T13:53:24.431Z,54.16
2022-10-10T13:55:59.735Z,54.03
2022-10-10T13:58:31.971Z,54.05
2022-10-10T14:01:03.482Z,53.11
2022-10-10T14:03:34.233Z,53.11
2022-10-10T14:06:02.646Z,53.35
2022-10-10T14:08:34.828Z,52.65
2022-10-10T14:11:06.968Z,53.36
2022-10-10T14:13:39.469Z,53.31
2022-10-10T14:16:13.290Z,53.71
2022-10-10T14:18:41.658Z,53.57
2022-10-10T14:21:11.091Z,53.55
2022-10-10T14:23:39.792Z,54.13
2022-10-10T14:26:12.872Z,53.83
2022-10-10T14:28:42.870Z,53.54
2022-10-10T14:31:11.414Z,53.18
2022-10-10T14:33:39.987Z,53.12
2022-10-10T14:36:08.521Z,53.10
2022-10-10T14:38:36.714Z,52.79
2022-10-10T14:41:05.477Z,53.35
2022-10-10T14:43:34.127Z,53.40
2022-10-10T14:46:03.848Z,53.83
2022-10-10T14:48:32.141Z,53.17
2022-10-10T14:51:00.699Z,53.52
2022-10-10T14:54:12.226Z,53.36
2022-10-10T14:57:06.857Z,54.04
2022-10-10T14:59:47.260Z,54.06
2022-10-10T15:02:14.825Z,54.03
2022-10-10T15:04:43.026Z,54.02
2022-10-10T15:07:14.288Z,54.11
2022-10-10T15:10:02.492Z,54.36
2022-10-10T15:12:32.863Z,54.14
2022-10-10T15:15:01.159Z,53.76
2022-10-10T15:17:33.838Z,54.11
2022-10-10T15:20:02.254Z,54.14
2022-10-10T15:22:31.139Z,54.30
2022-10-10T15:24:59.562Z,54.35
2022-10-10T15:27:28.647Z,54.23
2022-10-10T15:29:57.115Z,54.17
2022-10-10T15:32:25.578Z,54.66
2022-10-10T15:34:55.388Z,54.57
2022-10-10T15:37:25.854Z,54.53
2022-10-10T15:39:54.394Z,55.05
2022-10-10T15:45:11.943Z,55.44
2022-10-10T15:47:46.218Z,55.47
2022-10-10T15:50:16.356Z,55.27
2022-10-10T15:52:44.855Z,55.79
2022-10-10T15:55:13.254Z,56.02
2022-10-10T15:57:41.532Z,55.83
2022-10-10T15:59:17.722Z,55.40
2022-10-10T16:00:10.450Z,56.01
2022-10-10T16:02:41.488Z,56.42
2022-10-10T16:05:11.359Z,56.48
2022-10-10T16:07:47.572Z,56.24
2022-10-10T16:10:17.055Z,56.47
2022-10-10T16:12:45.280Z,57.11
2022-10-10T16:15:13.886Z,56.66
2022-10-10T16:17:42.141Z,56.96
2022-10-10T16:20:11.315Z,57.43
2022-10-10T16:22:40.973Z,57.49
2022-10-10T16:25:21.843Z,57.64
2022-10-10T16:27:51.979Z,58.05
2022-10-10T16:30:21.136Z,58.22
2022-10-10T16:32:49.653Z,58.32
2022-10-10T16:35:17.958Z,58.64
2022-10-10T16:37:47.653Z,58.61
2022-10-10T16:40:15.934Z,58.65
2022-10-10T16:42:44.241Z,58.80
2022-10-10T16:45:12.884Z,59.07
2022-10-10T16:47:41.106Z,59.28
2022-10-10T16:50:10.185Z,59.39
2022-10-10T16:52:38.648Z,60.04
2022-10-10T16:55:11.318Z,60.50
2022-10-10T16:57:41.131Z,60.60
2022-10-10T17:00:10.884Z,60.54
2022-10-10T17:02:42.402Z,60.88
2022-10-10T17:05:11.047Z,61.07
2022-10-10T17:07:39.301Z,60.95
2022-10-10T17:10:10.180Z,60.98
2022-10-10T17:12:38.521Z,61.41
2022-10-10T17:15:07.728Z,61.50
2022-10-10T17:17:36.836Z,61.69
2022-10-10T17:20:06.685Z,62.09
2022-10-10T17:22:35.298Z,62.20
2022-10-10T17:25:03.676Z,62.48
2022-10-10T17:27:35.162Z,62.84
2022-10-10T17:30:03.467Z,63.39
2022-10-10T17:32:31.695Z,63.68
2022-10-10T17:34:59.998Z,64.18
2022-10-10T17:37:28.553Z,64.19
2022-10-10T17:39:56.973Z,64.42
2022-10-10T17:42:25.221Z,64.57
2022-10-10T17:44:56.909Z,64.51
2022-10-10T17:47:25.244Z,65.11
2022-10-10T17:49:53.500Z,64.99
2022-10-10T17:52:21.979Z,65.00
2022-10-10T17:54:50.610Z,65.40
2022-10-10T17:57:19.131Z,65.61
2022-10-10T17:59:47.328Z,65.53
2022-10-10T18:02:18.911Z,65.06
2022-10-10T18:04:47.771Z,65.33
2022-10-10T18:07:16.364Z,65.43
2022-10-10T18:09:44.718Z,65.77
2022-10-10T18:12:13.317Z,66.27
2022-10-10T18:14:41.620Z,65.72
2022-10-10T18:17:10.006Z,65.83
2022-10-10T18:19:39.906Z,66.14
2022-10-10T18:22:08.350Z,66.16
2022-10-10T18:24:36.791Z,66.30
2022-10-10T18:27:05.179Z,66.31
2022-10-10T18:29:33.445Z,66.49
2022-10-10T18:32:01.791Z,66.62
2022-10-10T18:34:30.022Z,66.59
2022-10-10T18:36:59.767Z,66.98
2022-10-10T18:39:32.928Z,66.68
2022-10-10T18:42:01.575Z,66.66
2022-10-10T18:44:29.755Z,66.58
2022-10-10T18:46:58.413Z,66.63
2022-10-10T18:49:26.601Z,66.73
2022-10-10T18:51:55.077Z,66.86
2022-10-10T18:54:27.241Z,67.40
2022-10-10T18:56:55.566Z,67.66
2022-10-10T18:59:23.895Z,67.55
2022-10-10T19:01:53.464Z,67.95
2022-10-10T19:04:22.305Z,68.13
2022-10-10T19:06:56.161Z,68.27
2022-10-10T19:09:27.416Z,68.40
2022-10-10T19:11:55.710Z,68.06
2022-10-10T19:14:23.961Z,67.93
2022-10-10T19:16:53.364Z,67.77
2022-10-10T19:19:22.112Z,67.82
2022-10-10T19:21:51.630Z,68.18
2022-10-10T19:24:21.485Z,68.63
2022-10-10T19:26:54.957Z,68.78
2022-10-10T19:29:23.813Z,68.97
2022-10-10T19:31:52.983Z,69.38
2022-10-10T19:34:21.378Z,69.66
2022-10-10T19:36:49.672Z,69.81
2022-10-10T19:39:17.976Z,69.82
2022-10-10T19:41:46.235Z,70.07
2022-10-10T19:44:15.913Z,69.92
2022-10-10T19:46:44.121Z,70.06
2022-10-10T19:49:12.859Z,69.75
2022-10-10T19:51:41.022Z,69.83
2022-10-10T19:54:09.332Z,70.02
2022-10-10T19:56:37.497Z,70.38
2022-10-10T19:59:06.023Z,70.32
2022-10-10T20:01:35.742Z,69.97
2022-10-10T20:04:04.158Z,69.93
2022-10-10T20:06:32.470Z,70.14
2022-10-10T20:09:00.718Z,70.13
2022-10-10T20:11:29.185Z,70.56
2022-10-10T20:13:58.438Z,70.49
2022-10-10T20:16:27.812Z,70.35
2022-10-10T20:18:59.662Z,70.78
2022-10-10T20:21:31.781Z,70.68
2022-10-10T20:24:03.841Z,71.10
2022-10-10T20:26:32.702Z,71.00
2022-10-10T20:29:01.544Z,71.10
2022-10-10T20:31:32.639Z,71.36
2022-10-10T20:34:07.577Z,71.35
2022-10-10T20:36:39.353Z,71.24
2022-10-10T20:39:10.787Z,70.83
2022-10-10T20:41:43.119Z,70.83
2022-10-10T20:44:14.633Z,71.03
2022-10-10T20:46:44.932Z,71.32
2022-10-10T20:49:17.628Z,70.96
2022-10-10T20:51:48.899Z,70.89
2022-10-10T20:54:18.947Z,71.17
2022-10-10T20:56:49.387Z,70.83
2022-10-10T20:59:18.625Z,70.86
2022-10-10T21:01:47.516Z,71.00
2022-10-10T21:04:17.934Z,71.54
2022-10-10T21:06:46.801Z,71.48
2022-10-10T21:09:16.602Z,71.29
2022-10-10T21:11:48.664Z,71.67
2022-10-10T21:14:19.689Z,71.96
2022-10-10T21:16:50.723Z,72.04
2022-10-10T21:19:22.106Z,71.58
2022-10-10T21:21:50.869Z,71.78
2022-10-10T21:24:19.725Z,71.96
2022-10-10T21:26:50.599Z,71.86
2022-10-10T21:29:19.811Z,71.88
2022-10-10T21:31:48.502Z,71.83
2022-10-10T21:34:19.184Z,71.79
2022-10-10T21:36:49.597Z,71.86
2022-10-10T21:39:18.432Z,71.80
2022-10-10T21:41:47.438Z,72.23
2022-10-10T21:44:16.929Z,72.17
2022-10-10T21:46:45.726Z,72.22
2022-10-10T21:49:14.599Z,72.36
2022-10-10T21:51:45.759Z,72.08
2022-10-10T21:54:16.498Z,72.18
2022-10-10T21:56:45.383Z,72.13
2022-10-10T21:59:14.388Z,72.12
2022-10-10T22:01:44.698Z,72.04
2022-10-10T22:04:13.466Z,72.35
2022-10-10T22:06:42.952Z,72.28
2022-10-10T22:09:11.663Z,72.30
2022-10-10T22:11:41.948Z,72.07
2022-10-10T22:14:10.702Z,72.45
2022-10-10T22:16:39.351Z,72.61
2022-10-10T22:19:08.733Z,72.59
2022-10-10T22:21:38.299Z,72.94
2022-10-10T22:24:09.140Z,72.50
2022-10-10T22:26:38.695Z,72.55
2022-10-10T22:29:09.780Z,72.84
2022-10-10T22:31:38.659Z,73.03
2022-10-10T22:34:08.286Z,73.01
2022-10-10T22:36:37.152Z,73.32
2022-10-10T22:39:07.468Z,72.96
2022-10-10T22:41:36.278Z,73.33
2022-10-10T22:44:05.410Z,73.70
2022-10-10T22:46:35.678Z,73.11
2022-10-10T22:49:04.545Z,73.58
2022-10-10T22:51:33.413Z,73.54
2022-10-10T22:54:02.176Z,73.72
2022-10-10T22:56:30.915Z,73.81
2022-10-10T22:58:59.925Z,73.38
2022-10-10T23:01:28.698Z,73.61
2022-10-10T23:04:03.611Z,73.48
2022-10-10T23:06:32.306Z,73.59
2022-10-10T23:09:01.049Z,73.46
2022-10-10T23:11:29.813Z,73.44
2022-10-10T23:13:58.545Z,73.39
2022-10-10T23:16:27.281Z,73.11
2022-10-10T23:18:56.067Z,73.05
2022-10-10T23:21:26.288Z,72.93
2022-10-10T23:23:56.190Z,72.62
2022-10-10T23:26:24.859Z,72.96
2022-10-10T23:28:53.772Z,72.83
2022-10-10T23:31:22.584Z,72.66
2022-10-10T23:33:51.386Z,72.84
2022-10-10T23:36:20.139Z,72.81
2022-10-10T23:38:51.456Z,72.76
2022-10-10T23:41:20.410Z,72.98
2022-10-10T23:43:49.293Z,73.01
2022-10-10T23:46:18.064Z,73.00
2022-10-10T23:48:49.019Z,73.08
2022-10-10T23:51:18.227Z,73.15
2022-10-10T23:53:47.015Z,73.18
2022-10-10T23:56:17.209Z,73.33
2022-10-10T23:58:45.981Z,73.26
